De Pere, Wisconsin
Current Conditions -  °F | °C
As of 4:53 PM on Saturday 20 Dec 2014 (Local Time) from KGRB Reporting Station
Haze Haze  
Wind Chill: 30°   Ceiling: 3900
Heat Index: 30°   Visibility: 5mi
Dew Point: 25°   Wind: 0mph
Humidity: 82%   Direction: NA
Pressure: 30.23"   Gusts: NA
Location:  44.45°N, 88.08°W
Report Text: KGRB 202253Z 00000KT 5SM HZ OVC039 M01/M04 A3023 RMK AO2 SLP249 T10111039
Loading
Personal Weather Stations






























Interactive Weather Map New forecast layout! Learn more

10-Day Weather Forecast

Advertisements
Track Severe Weather on mobile